York Beach, Maine
Current Conditions -  °F | °C
As of 4:58 AM on Saturday 25 Oct 2014 (Local Time) from KPSM Reporting Station
Broken Clouds Broken Clouds  
Wind Chill: 47°   Ceiling: 8000
Heat Index: 47°   Visibility: 10mi
Dew Point: 41°   Wind: 3mph
Humidity: 81%   Direction: 260°W
Pressure: 29.71"   Gusts: NA
Location:  43.17°N, 70.61°W
Report Text: KPSM 250858Z 26003KT 10SM BKN080 08/05 A2971 RMK AO2A SLP065 T00810051 58003
Loading
Personal Weather Stations






























Interactive Weather Map
Tropical Storm Tracking
New forecast layout! Learn more

10-Day Weather Forecast

Advertisements
Track Severe Weather on mobile